Andrews, TX

10:59 AM CST on December 10, 2019 (GMT -0600)
Andrews

Weather History for KE11 - October, 2019

Change the Weather History Date:

Sunday, October 27, 2019

  Actual Average (KMAF) Record (KMAF)
Temperature  
Mean Temperature 60 °F -  
Max Temperature 75 °F 70 °F 90 °F (1988)
Min Temperature 45 °F 47 °F 31 °F (1997)
Degree Days  
Heating Degree Days 5    
Growing Degree Days 10 (Base 50)    
Moisture  
Dew Point 24 °F    
Average Humidity 27    
Maximum Humidity 60    
Minimum Humidity 14    
Precipitation  
Precipitation 0.00 in - - ()
Sea Level Pressure  
Sea Level Pressure 29.88 in    
Wind  
Wind Speed 9 mph ()    
Max Wind Speed 15 mph    
Max Gust Speed 21 mph    
Visibility 10.0 miles    
Events      
Averages and records for this station are not official NWS values.
T = Trace of Precipitation, MM = Missing Value Source: Averaged Metar Reports

Daily Weather History Graph

Daily Weather History Graph

Search for Another Location

Airport or City:

Astronomy

Oct. 27, 2019 Rise Set
Actual Time 8:02 AM CDT 7:04 PM CDT
Civil Twilight 7:37 AM CDT 7:29 PM CDT
Nautical Twilight 7:08 AM CDT 7:58 PM CDT
Astronomical Twilight 6:40 AM CDT 8:27 PM CDT
Moon 7:20 AM CDT (10/27) 7:11 PM CDT (10/27)
Length of Visible Light 11h 51m
Length of Day
11h 01m
Waning Crescent, 0% of the Moon is Illuminated
Oct 27
Waning Crescent
Oct 27
New
Nov 4
First Quarter
Nov 12
Full
Nov 19
Last Quarter

Hourly Weather History & Observations

Time (CDT) Temp. Windchill Dew Point Humidity Pressure Visibility Wind Dir Wind Speed Gust Speed Precip Events Conditions
12:15 AM 54.3 °F - 14.5 °F 21% 29.83 in 10.0 mi WSW 11.5 mph - N/A   Clear
12:35 AM 53.8 °F - 14.9 °F 22% 29.83 in 10.0 mi WSW 10.4 mph - N/A   Clear
12:55 AM 53.4 °F - 14.9 °F 22% 29.82 in 10.0 mi WSW 10.4 mph - N/A   Clear
1:15 AM 54.1 °F - 15.3 °F 22% 29.82 in 10.0 mi WSW 11.5 mph - N/A   Clear
1:35 AM 55.6 °F - 15.6 °F 21% 29.82 in 10.0 mi WSW 11.5 mph - N/A   Clear
1:55 AM 56.1 °F - 15.4 °F 20% 29.82 in 10.0 mi SW 11.5 mph - N/A   Clear
2:15 AM 54.5 °F - 15.8 °F 22% 29.82 in 10.0 mi SW 10.4 mph - N/A   Clear
2:35 AM 54.0 °F - 16.3 °F 23% 29.82 in 10.0 mi WSW 10.4 mph - N/A   Clear
2:55 AM 53.1 °F - 16.5 °F 24% 29.82 in 10.0 mi WSW 11.5 mph - N/A   Clear
3:15 AM 53.4 °F - 16.5 °F 23% 29.81 in 10.0 mi WSW 10.4 mph - N/A   Clear
3:35 AM 54.0 °F - 16.5 °F 23% 29.81 in 10.0 mi WSW 13.8 mph - N/A   Clear
3:55 AM 53.8 °F - 16.5 °F 23% 29.82 in 10.0 mi SSW 9.2 mph - N/A   Clear
4:15 AM 50.7 °F - 16.7 °F 26% 29.81 in 10.0 mi WSW 10.4 mph - N/A   Clear
4:35 AM 51.8 °F - 17.6 °F 26% 29.81 in 10.0 mi WSW 10.4 mph - N/A   Clear
4:55 AM 52.3 °F - 17.6 °F 25% 29.81 in 10.0 mi WSW 8.1 mph - N/A   Clear
5:15 AM 52.5 °F - 17.6 °F 25% 29.81 in 10.0 mi West 10.4 mph - N/A   Clear
5:35 AM 52.7 °F - 17.4 °F 25% 29.82 in 10.0 mi WSW 9.2 mph - N/A   Clear
5:55 AM 49.5 °F - 17.1 °F 28% 29.82 in 10.0 mi WSW 8.1 mph - N/A   Clear
6:15 AM 49.5 °F - 16.7 °F 27% 29.82 in 10.0 mi WSW 6.9 mph - N/A   Clear
6:35 AM 51.1 °F - 16.7 °F 26% 29.83 in 10.0 mi WSW 9.2 mph - N/A   Clear
6:55 AM 49.1 °F - 16.5 °F 27% 29.83 in 10.0 mi SW 8.1 mph - N/A   Clear
7:15 AM 47.1 °F - 16.7 °F 30% 29.84 in 10.0 mi SW 9.2 mph - N/A   Clear
7:35 AM 45.9 °F 41.2 °F 16.5 °F 31% 29.85 in 10.0 mi SSW 9.2 mph - N/A   Clear
7:55 AM 46.2 °F 41.2 °F 17.4 °F 32% 29.86 in 10.0 mi SW 10.4 mph - N/A   Clear
8:15 AM 49.6 °F - 18.3 °F 29% 29.86 in 10.0 mi WSW 10.4 mph - N/A   Clear
8:35 AM 53.1 °F - 19.2 °F 27% 29.87 in 10.0 mi WSW 12.7 mph 18.4 mph N/A   Clear
8:55 AM 54.7 °F - 19.8 °F 26% 29.87 in 10.0 mi WSW 11.5 mph - N/A   Clear
9:15 AM 55.4 °F - 21.0 °F 26% 29.88 in 10.0 mi WSW 8.1 mph - N/A   Clear
9:35 AM 59.0 °F - 22.3 °F 24% 29.89 in 10.0 mi WSW 8.1 mph - N/A   Clear
9:55 AM 62.4 °F - 23.7 °F 23% 29.90 in 10.0 mi WSW 6.9 mph - N/A   Clear
10:15 AM 66.2 °F - 24.6 °F 21% 29.91 in 10.0 mi WSW 9.2 mph - N/A   Clear
10:35 AM 68.9 °F - 25.3 °F 19% 29.91 in 10.0 mi WSW 8.1 mph - N/A   Clear
10:55 AM 71.1 °F - 24.8 °F 18% 29.91 in 10.0 mi West 8.1 mph - N/A   Clear
11:15 AM 73.0 °F - 24.6 °F 16% 29.91 in 10.0 mi WSW 5.8 mph - N/A   Clear
11:35 AM 74.5 °F - 23.7 °F 15% 29.92 in 10.0 mi WNW 6.9 mph - N/A   Clear
11:55 AM 75.0 °F - 22.8 °F 14% 29.91 in 10.0 mi WNW 9.2 mph - N/A   Clear
12:15 PM 75.0 °F - 23.7 °F 15% 29.92 in 10.0 mi NNW 10.4 mph - N/A   Clear
12:35 PM 73.6 °F - 24.4 °F 16% 29.92 in 10.0 mi North 9.2 mph - N/A   Clear
12:55 PM 74.3 °F - 24.6 °F 16% 29.92 in 10.0 mi NNW 8.1 mph - N/A   Clear
1:35 PM 74.3 °F - 23.0 °F 15% 29.91 in 10.0 mi NNE 9.2 mph - N/A   Clear
1:55 PM 74.5 °F - 22.8 °F 15% 29.91 in 10.0 mi North 3.5 mph - N/A   Clear
2:15 PM 75.4 °F - 23.0 °F 14% 29.90 in 10.0 mi NNE 9.2 mph - N/A   Clear
2:35 PM 74.8 °F - 22.5 °F 14% 29.89 in 10.0 mi NE 8.1 mph - N/A   Clear
2:55 PM 75.2 °F - 24.6 °F 15% 29.89 in 10.0 mi NNE 8.1 mph - N/A   Clear
3:15 PM 75.7 °F - 24.8 °F 15% 29.88 in 10.0 mi NNE 8.1 mph - N/A   Clear
3:35 PM 75.0 °F - 25.7 °F 16% 29.89 in 10.0 mi NE 9.2 mph - N/A   Clear
3:55 PM 75.4 °F - 25.9 °F 16% 29.88 in 10.0 mi NE 8.1 mph - N/A   Clear
4:15 PM 75.7 °F - 26.4 °F 16% 29.88 in 10.0 mi ENE 9.2 mph 20.7 mph N/A   Clear
4:35 PM 75.7 °F - 25.7 °F 16% 29.88 in 10.0 mi ENE 11.5 mph - N/A   Clear
4:55 PM 75.6 °F - 26.6 °F 16% 29.88 in 10.0 mi ENE 13.8 mph 17.3 mph N/A   Clear
5:15 PM 74.3 °F - 28.6 °F 18% 29.88 in 10.0 mi ENE 12.7 mph - N/A   Clear
5:35 PM 73.4 °F - 29.7 °F 20% 29.88 in 10.0 mi ENE 11.5 mph 19.6 mph N/A   Clear
5:55 PM 72.0 °F - 30.6 °F 22% 29.88 in 10.0 mi ENE 15.0 mph - N/A   Clear
6:15 PM 70.3 °F - 30.9 °F 23% 29.88 in 7.0 mi ENE 11.5 mph 17.3 mph N/A   Clear
6:35 PM 68.0 °F - 32.0 °F 26% 29.88 in 10.0 mi ENE 11.5 mph - N/A   Clear
6:55 PM 65.1 °F - 32.0 °F 29% 29.88 in 10.0 mi ENE 8.1 mph - N/A   Clear
7:15 PM 61.9 °F - 32.0 °F 33% 29.89 in 10.0 mi NE 5.8 mph - N/A   Clear
7:35 PM 58.8 °F - 32.0 °F 36% 29.90 in 10.0 mi ENE 6.9 mph - N/A   Clear
7:55 PM 57.9 °F - 32.2 °F 38% 29.91 in 10.0 mi North 4.6 mph - N/A   Clear
8:15 PM 55.0 °F - 32.0 °F 42% 29.92 in 10.0 mi ENE 9.2 mph - N/A   Clear
8:35 PM 54.7 °F - 32.2 °F 42% 29.93 in 10.0 mi ENE 8.1 mph - N/A   Clear
8:55 PM 55.8 °F - 32.9 °F 42% 29.94 in 10.0 mi East 10.4 mph - N/A   Clear
9:15 PM 55.8 °F - 32.9 °F 42% 29.94 in 10.0 mi East 13.8 mph 18.4 mph N/A   Clear
9:35 PM 54.1 °F - 32.7 °F 44% 29.96 in 10.0 mi East 10.4 mph - N/A   Clear
9:55 PM 52.0 °F - 32.4 °F 47% 29.96 in 10.0 mi East 9.2 mph - N/A   Clear
10:15 PM 50.9 °F - 32.4 °F 49% 29.97 in 10.0 mi ENE 10.4 mph - N/A   Clear
10:35 PM 50.2 °F - 32.4 °F 50% 29.98 in 10.0 mi ENE 8.1 mph 16.1 mph N/A   Clear
10:50 PM 48.6 °F - 32.4 °F 54% 29.98 in 10.0 mi ENE 11.5 mph - N/A   Clear
11:15 PM 47.8 °F - 32.5 °F 55% 29.99 in 10.0 mi ENE 9.2 mph - N/A   Clear
11:35 PM 47.3 °F - 32.7 °F 57% 29.99 in 10.0 mi ENE 6.9 mph - N/A   Clear
11:55 PM 45.9 °F 42.3 °F 32.5 °F 60% 29.99 in 10.0 mi ENE 6.9 mph - N/A   Clear